Terminal Aerodrome Forecast
Issued by NWS

Home | Current Version | Previous Version | Text Only | Print | Product List | Glossary On
Versions: 1 2 3 4 5 6 7 8 9 10 11 12 13 14 15 16 17 18 19 20 21 22 23 24 25 26 27 28 29 30
000
FTUS46 KSGX 282038 AAA
TAFSAN
TAF AMD
KSAN 282038Z 2821/2924 29009KT P6SM FEW060 FEW110 SCT150
     FM290200 VRB04KT P6SM SCT080
     FM291900 28008KT P6SM SCT060=

USA.gov is the U.S. government's official web portal to all federal, state and local government web resources and services.